createdAt,value
2018-08-17T00:01:44.450Z,101005.42
2018-08-17T00:04:13.417Z,101002.76
2018-08-17T00:06:42.351Z,100999.50
2018-08-17T00:09:12.562Z,100991.83
2018-08-17T00:11:41.506Z,100992.92
2018-08-17T00:14:10.420Z,100978.45
2018-08-17T00:16:39.594Z,100988.48
2018-08-17T00:19:08.504Z,100989.30
2018-08-17T00:21:37.525Z,100979.72
2018-08-17T00:24:06.447Z,100982.19
2018-08-17T00:26:35.310Z,100983.55
2018-08-17T00:29:04.170Z,100986.84
2018-08-17T00:31:33.101Z,100990.38
2018-08-17T00:34:03.088Z,100991.78
2018-08-17T00:36:32.000Z,100997.59
2018-08-17T00:39:00.949Z,100996.45
2018-08-17T00:41:29.865Z,100986.64
2018-08-17T00:43:58.790Z,100994.31
2018-08-17T00:46:27.721Z,100994.38
2018-08-17T00:48:56.596Z,100993.22
2018-08-17T00:51:26.352Z,100995.69
2018-08-17T00:53:55.219Z,101004.42
2018-08-17T00:56:24.115Z,101016.25
2018-08-17T00:58:53.149Z,101026.16
2018-08-17T01:01:22.054Z,101033.85
2018-08-17T01:03:50.963Z,101043.98
2018-08-17T01:06:19.869Z,101048.90
2018-08-17T01:08:48.754Z,101053.25
2018-08-17T01:11:17.663Z,101061.73
2018-08-17T01:13:46.572Z,101070.76
2018-08-17T01:16:15.441Z,101071.35
2018-08-17T01:18:44.329Z,101074.59
2018-08-17T01:21:14.283Z,101083.08
2018-08-17T01:23:43.173Z,101089.12
2018-08-17T01:26:12.072Z,101087.47
2018-08-17T01:28:40.964Z,101096.50
2018-08-17T01:31:09.910Z,101111.56
2018-08-17T01:33:38.788Z,101112.97
2018-08-17T01:36:07.712Z,101132.98
2018-08-17T01:38:36.599Z,101133.02
2018-08-17T01:41:05.630Z,101140.44
2018-08-17T01:43:34.506Z,101143.48
2018-08-17T01:46:03.394Z,101136.66
2018-08-17T01:48:32.554Z,101140.23
2018-08-17T01:51:01.436Z,101135.03
2018-08-17T01:53:30.375Z,101128.48
2018-08-17T01:55:59.872Z,101126.88
2018-08-17T01:58:28.790Z,101126.59
2018-08-17T02:00:57.638Z,101129.90
2018-08-17T02:03:26.585Z,101138.90
2018-08-17T02:05:55.548Z,101145.73
2018-08-17T02:08:24.470Z,101149.54
2018-08-17T02:10:53.363Z,101151.47
2018-08-17T02:13:22.376Z,101155.56
2018-08-17T02:15:51.300Z,101163.20
2018-08-17T02:18:20.190Z,101160.19
2018-08-17T02:20:49.128Z,101168.94
2018-08-17T02:23:18.081Z,101177.09
2018-08-17T02:25:47.053Z,101174.65
2018-08-17T02:28:15.938Z,101172.52
2018-08-17T02:30:44.887Z,101181.23
2018-08-17T02:33:13.802Z,101182.56
2018-08-17T02:35:42.730Z,101183.64
2018-08-17T02:38:11.607Z,101181.79
2018-08-17T02:40:40.497Z,101182.31
2018-08-17T02:43:09.488Z,101192.44
2018-08-17T02:45:38.372Z,101187.26
2018-08-17T02:48:07.258Z,101175.45
2018-08-17T02:50:36.209Z,101172.23
2018-08-17T02:53:05.674Z,101184.80
2018-08-17T02:55:36.068Z,101185.01
2018-08-17T02:58:04.989Z,101191.58
2018-08-17T03:00:33.847Z,101181.74
2018-08-17T03:03:02.741Z,101177.97
2018-08-17T03:05:31.638Z,101170.27
2018-08-17T03:08:00.563Z,101170.54
2018-08-17T03:10:29.442Z,101161.31
2018-08-17T03:12:58.321Z,101159.11
2018-08-17T03:15:27.233Z,101161.59
2018-08-17T03:17:56.169Z,101157.45
2018-08-17T03:20:25.080Z,101171.11
2018-08-17T03:22:53.980Z,101177.09
2018-08-17T03:25:22.891Z,101174.41
2018-08-17T03:27:51.773Z,101179.02
2018-08-17T03:30:21.682Z,101171.64
2018-08-17T03:32:50.550Z,101178.22
2018-08-17T03:35:19.445Z,101185.89
2018-08-17T03:37:48.339Z,101191.62
2018-08-17T03:40:17.302Z,101186.41
2018-08-17T03:42:46.190Z,101191.81
2018-08-17T03:45:15.074Z,101193.46
2018-08-17T03:47:43.999Z,101212.05
2018-08-17T03:50:12.920Z,101215.88
2018-08-17T03:52:41.807Z,101215.05
2018-08-17T03:55:10.685Z,101212.58
2018-08-17T03:57:39.566Z,101191.35
2018-08-17T04:00:08.503Z,101164.53
2018-08-17T04:02:37.508Z,101151.16
2018-08-17T04:05:06.413Z,101160.97
2018-08-17T04:07:35.361Z,101164.80
2018-08-17T04:10:04.609Z,101184.74
2018-08-17T04:12:33.474Z,101183.83
2018-08-17T04:15:02.385Z,101186.56
2018-08-17T04:17:31.272Z,101186.88
2018-08-17T04:20:00.195Z,101195.05
2018-08-17T04:22:29.063Z,101205.47
2018-08-17T04:24:57.950Z,101203.28
2018-08-17T04:27:26.857Z,101218.28
2018-08-17T04:29:55.744Z,101221.82
2018-08-17T04:32:24.668Z,101233.61
2018-08-17T04:34:53.670Z,101245.09
2018-08-17T04:37:22.676Z,101259.30
2018-08-17T04:39:51.550Z,101259.00
2018-08-17T04:42:20.433Z,101274.85
2018-08-17T04:44:49.352Z,101291.23
2018-08-17T04:47:18.237Z,101299.19
2018-08-17T04:49:47.267Z,101312.05
2018-08-17T04:52:16.195Z,101305.50
2018-08-17T04:54:45.188Z,101307.42
2018-08-17T04:57:14.164Z,101307.90
2018-08-17T04:59:43.057Z,101307.36
2018-08-17T05:02:13.010Z,101305.17
2018-08-17T05:04:41.893Z,101308.11
2018-08-17T05:07:11.455Z,101308.69
2018-08-17T05:09:40.429Z,101323.33
2018-08-17T05:12:10.533Z,101308.92
2018-08-17T05:14:39.548Z,101315.09
2018-08-17T05:17:08.442Z,101293.75
2018-08-17T05:19:37.377Z,101282.30
2018-08-17T05:22:06.273Z,101277.97
2018-08-17T05:24:35.278Z,101272.52
2018-08-17T05:27:04.218Z,101276.52
2018-08-17T05:29:33.185Z,101286.11
2018-08-17T05:32:02.129Z,101305.95
2018-08-17T05:34:31.049Z,101307.74
2018-08-17T05:37:00.053Z,101299.97
2018-08-17T05:39:28.951Z,101300.88
2018-08-17T05:41:57.833Z,101298.42
2018-08-17T05:44:27.734Z,101296.05
2018-08-17T05:46:56.634Z,101301.70
2018-08-17T05:49:25.621Z,101308.90
2018-08-17T05:51:54.583Z,101317.66
2018-08-17T05:54:23.462Z,101323.01
2018-08-17T05:56:52.407Z,101329.86
2018-08-17T05:59:21.293Z,101321.45
2018-08-17T06:01:50.197Z,101321.70
2018-08-17T06:04:19.103Z,101330.16
2018-08-17T06:06:48.011Z,101330.44
2018-08-17T06:09:16.973Z,101343.49
2018-08-17T06:11:45.882Z,101345.76
2018-08-17T06:14:14.743Z,101346.53
2018-08-17T06:16:43.643Z,101350.73
2018-08-17T06:19:12.658Z,101349.80
2018-08-17T06:21:41.613Z,101350.78
2018-08-17T06:24:11.351Z,101356.19
2018-08-17T06:26:40.254Z,101352.27
2018-08-17T06:29:09.123Z,101334.56
2018-08-17T06:31:38.135Z,101317.45
2018-08-17T06:34:06.982Z,101311.50
2018-08-17T06:36:35.898Z,101321.60
2018-08-17T06:39:07.299Z,101318.23
2018-08-17T06:41:36.218Z,101305.68
2018-08-17T06:44:05.144Z,101300.78
2018-08-17T06:46:34.164Z,101292.86
2018-08-17T06:49:03.053Z,101277.94
2018-08-17T06:51:32.006Z,101279.27
2018-08-17T06:54:00.939Z,101302.25
2018-08-17T06:56:29.853Z,101305.31
2018-08-17T06:58:58.724Z,101300.11
2018-08-17T07:01:27.635Z,101307.78
2018-08-17T07:03:56.572Z,101310.13
2018-08-17T07:06:25.493Z,101308.28
2018-08-17T07:08:54.859Z,101307.44
2018-08-17T07:11:24.770Z,101308.70
2018-08-17T07:13:54.279Z,101312.05
2018-08-17T07:16:23.325Z,101308.46
2018-08-17T07:18:52.209Z,101327.09
2018-08-17T07:21:21.099Z,101334.31
2018-08-17T07:23:49.974Z,101332.25
2018-08-17T07:26:18.878Z,101341.17
2018-08-17T07:28:47.790Z,101340.38
2018-08-17T07:31:16.674Z,101342.87
2018-08-17T07:33:45.561Z,101357.94
2018-08-17T07:36:14.498Z,101356.66
2018-08-17T07:38:43.428Z,101353.34
2018-08-17T07:41:12.330Z,101341.16
2018-08-17T07:43:41.248Z,101347.91
2018-08-17T07:46:10.811Z,101360.06
2018-08-17T07:48:39.884Z,101357.06
2018-08-17T07:51:08.981Z,101357.88
2018-08-17T07:53:37.919Z,101359.13
2018-08-17T07:56:06.903Z,101352.41
2018-08-17T07:58:35.831Z,101357.76
2018-08-17T08:01:04.744Z,101360.52
2018-08-17T08:03:33.752Z,101359.80
2018-08-17T08:06:02.683Z,101368.78
2018-08-17T08:08:31.604Z,101380.47
2018-08-17T08:11:00.603Z,101373.59
2018-08-17T08:13:29.613Z,101370.56
2018-08-17T08:15:58.490Z,101377.13
2018-08-17T08:18:27.345Z,101391.44
2018-08-17T08:20:56.260Z,101389.81
2018-08-17T08:23:27.063Z,101401.03
2018-08-17T08:25:56.408Z,101407.73
2018-08-17T08:28:25.304Z,101412.34
2018-08-17T08:30:54.217Z,101410.74
2018-08-17T08:33:23.287Z,101415.06
2018-08-17T08:35:52.189Z,101426.74
2018-08-17T08:38:21.109Z,101425.96
2018-08-17T08:40:50.031Z,101434.23
2018-08-17T08:43:18.943Z,101427.33
2018-08-17T08:45:47.903Z,101427.15
2018-08-17T08:48:16.739Z,101427.97
2018-08-17T08:50:45.658Z,101433.41
2018-08-17T08:53:14.526Z,101437.98
2018-08-17T08:55:43.420Z,101444.78
2018-08-17T08:58:12.353Z,101441.11
2018-08-17T09:00:41.226Z,101449.09
2018-08-17T09:03:10.256Z,101445.81
2018-08-17T09:05:39.172Z,101457.98
2018-08-17T09:08:08.122Z,101449.06
2018-08-17T09:10:36.962Z,101451.48
2018-08-17T09:13:06.092Z,101448.54
2018-08-17T09:15:34.983Z,101449.92
2018-08-17T09:18:03.865Z,101458.80
2018-08-17T09:20:32.850Z,101462.77
2018-08-17T09:23:02.732Z,101468.85
2018-08-17T09:25:31.668Z,101470.22
2018-08-17T09:28:00.575Z,101472.80
2018-08-17T09:30:29.473Z,101472.94
2018-08-17T09:32:58.382Z,101480.30
2018-08-17T09:35:27.249Z,101479.83
2018-08-17T09:37:56.199Z,101482.86
2018-08-17T09:40:25.137Z,101480.31
2018-08-17T09:42:54.093Z,101484.22
2018-08-17T09:45:22.974Z,101473.20
2018-08-17T09:47:52.925Z,101480.76
2018-08-17T09:50:21.810Z,101480.16
2018-08-17T09:52:50.736Z,101476.67
2018-08-17T09:55:19.611Z,101479.20
2018-08-17T09:57:48.526Z,101465.59
2018-08-17T10:00:17.439Z,101471.21
2018-08-17T10:02:51.543Z,101469.83
2018-08-17T10:05:25.678Z,101468.86
2018-08-17T10:07:59.820Z,101466.34
2018-08-17T10:10:28.716Z,101470.57
2018-08-17T10:12:57.681Z,101475.91
2018-08-17T10:15:26.648Z,101476.81
2018-08-17T10:17:55.584Z,101472.61
2018-08-17T10:20:24.811Z,101474.77
2018-08-17T10:22:53.676Z,101480.84
2018-08-17T10:25:24.834Z,101488.66
2018-08-17T10:27:57.071Z,101492.71
2018-08-17T10:30:26.121Z,101489.16
2018-08-17T10:32:57.312Z,101492.83
2018-08-17T10:35:32.549Z,101489.14
2018-08-17T10:38:05.644Z,101489.33
2018-08-17T10:40:34.633Z,101490.36
2018-08-17T10:43:04.782Z,101488.75
2018-08-17T10:45:33.989Z,101499.55
2018-08-17T10:48:02.946Z,101491.36
2018-08-17T10:50:32.957Z,101488.90
2018-08-17T10:53:02.990Z,101496.62
2018-08-17T10:55:41.072Z,101497.87
2018-08-17T10:58:11.802Z,101511.25
2018-08-17T11:00:40.706Z,101512.80
2018-08-17T11:03:09.685Z,101507.50
2018-08-17T11:05:38.591Z,101514.39
2018-08-17T11:08:07.580Z,101520.69
2018-08-17T11:10:36.553Z,101514.57
2018-08-17T11:13:05.519Z,101512.44
2018-08-17T11:15:34.393Z,101513.31
2018-08-17T11:18:03.273Z,101519.55
2018-08-17T11:20:32.237Z,101517.39
2018-08-17T11:23:02.170Z,101523.41
2018-08-17T11:25:31.093Z,101513.80
2018-08-17T11:27:59.941Z,101516.03
2018-08-17T11:30:28.849Z,101519.69
2018-08-17T11:32:57.767Z,101519.83
2018-08-17T11:35:26.630Z,101520.83
2018-08-17T11:37:55.527Z,101521.01
2018-08-17T11:40:24.469Z,101518.39
2018-08-17T11:42:53.357Z,101515.35
2018-08-17T11:45:25.322Z,101518.97
2018-08-17T11:47:54.870Z,101521.91
2018-08-17T11:50:24.829Z,101520.84
2018-08-17T11:52:54.823Z,101529.33
2018-08-17T11:55:24.595Z,101525.56
2018-08-17T11:57:53.694Z,101528.84
2018-08-17T12:00:22.592Z,101536.57
2018-08-17T12:02:51.486Z,101536.93
2018-08-17T12:05:20.364Z,101537.48
2018-08-17T12:07:49.561Z,101540.88
2018-08-17T12:10:18.491Z,101539.57
2018-08-17T12:12:47.487Z,101540.47
2018-08-17T12:15:16.740Z,101536.55
2018-08-17T12:17:45.652Z,101541.40
2018-08-17T12:20:14.563Z,101539.53
2018-08-17T12:22:43.527Z,101537.38
2018-08-17T12:25:12.540Z,101536.55
2018-08-17T12:27:46.497Z,101528.16
2018-08-17T12:30:15.393Z,101533.62
2018-08-17T12:32:44.331Z,101536.28
2018-08-17T12:35:13.219Z,101535.14
2018-08-17T12:37:42.154Z,101540.16
2018-08-17T12:40:11.108Z,101530.14
2018-08-17T12:42:39.981Z,101533.46
2018-08-17T12:45:14.083Z,101535.37
2018-08-17T12:47:42.973Z,101534.84
2018-08-17T12:50:11.975Z,101533.40
2018-08-17T12:52:40.842Z,101538.64
2018-08-17T12:55:09.723Z,101533.97
2018-08-17T12:57:42.173Z,101535.41
2018-08-17T13:00:12.059Z,101534.11
2018-08-17T13:02:41.094Z,101533.83
2018-08-17T13:05:09.984Z,101531.91
2018-08-17T13:07:38.944Z,101528.08
2018-08-17T13:10:07.799Z,101528.89
2018-08-17T13:12:36.690Z,101534.67
2018-08-17T13:15:05.670Z,101537.14
2018-08-17T13:17:39.698Z,101536.05
2018-08-17T13:20:08.620Z,101539.06
2018-08-17T13:22:37.507Z,101534.39
2018-08-17T13:25:06.479Z,101536.29
2018-08-17T13:27:35.435Z,101538.77
2018-08-17T13:30:05.273Z,101535.75
2018-08-17T13:32:34.241Z,101535.22
2018-08-17T13:35:03.208Z,101536.27
2018-08-17T13:37:32.171Z,101531.66
2018-08-17T13:40:01.326Z,101533.02
2018-08-17T13:42:30.104Z,101530.28
2018-08-17T13:44:59.028Z,101524.81
2018-08-17T13:47:27.939Z,101522.33
2018-08-17T13:49:56.860Z,101520.95
2018-08-17T13:52:25.805Z,101516.31
2018-08-17T13:54:54.685Z,101522.91
2018-08-17T13:57:23.617Z,101518.25
2018-08-17T13:59:52.520Z,101515.23
2018-08-17T14:02:21.413Z,101507.81
2018-08-17T14:04:50.382Z,101519.02
2018-08-17T14:07:19.293Z,101512.14
2018-08-17T14:09:48.225Z,101508.00
2018-08-17T14:12:17.193Z,101512.11
2018-08-17T14:14:46.106Z,101508.28
2018-08-17T14:17:15.000Z,101507.70
2018-08-17T14:19:43.897Z,101508.78
2018-08-17T14:22:12.803Z,101510.69
2018-08-17T14:24:41.726Z,101505.73
2018-08-17T14:27:10.583Z,101500.48
2018-08-17T14:29:39.608Z,101497.69
2018-08-17T14:32:08.507Z,101490.84
2018-08-17T14:34:37.441Z,101491.28
2018-08-17T14:37:06.339Z,101494.78
2018-08-17T14:39:35.359Z,101497.77
2018-08-17T14:42:04.286Z,101495.17
2018-08-17T14:44:33.208Z,101490.58
2018-08-17T14:47:02.146Z,101492.23
2018-08-17T14:49:31.013Z,101498.17
2018-08-17T14:51:59.970Z,101495.81
2018-08-17T14:54:28.879Z,101497.20
2018-08-17T14:56:57.766Z,101491.78
2018-08-17T14:59:26.707Z,101496.70
2018-08-17T15:01:55.724Z,101495.28
2018-08-17T15:04:24.619Z,101494.22
2018-08-17T15:06:53.547Z,101488.55
2018-08-17T15:09:22.409Z,101488.71
2018-08-17T15:11:51.304Z,101486.83
2018-08-17T15:14:20.205Z,101487.63
2018-08-17T15:16:49.071Z,101482.67
2018-08-17T15:19:17.971Z,101473.81
2018-08-17T15:21:46.966Z,101478.01
2018-08-17T15:24:15.857Z,101478.53
2018-08-17T15:26:44.782Z,101483.55
2018-08-17T15:29:13.709Z,101481.30
2018-08-17T15:31:42.604Z,101479.55
2018-08-17T15:34:11.492Z,101485.93
2018-08-17T15:36:40.369Z,101479.66
2018-08-17T15:39:09.337Z,101490.89
2018-08-17T15:41:41.942Z,101482.36
2018-08-17T15:44:29.302Z,101480.20
2018-08-17T15:46:58.756Z,101479.62
2018-08-17T15:49:35.428Z,101484.34
2018-08-17T15:52:05.527Z,101476.14
2018-08-17T15:54:34.531Z,101482.38
2018-08-17T15:57:03.537Z,101476.83
2018-08-17T15:59:32.526Z,101479.88
2018-08-17T16:02:01.521Z,101476.36
2018-08-17T16:04:30.600Z,101482.59
2018-08-17T16:06:59.615Z,101479.66
2018-08-17T16:09:28.608Z,101479.69
2018-08-17T16:11:57.561Z,101481.81
2018-08-17T16:14:26.551Z,101484.58
2018-08-17T16:16:55.457Z,101482.62
2018-08-17T16:19:24.445Z,101479.89
2018-08-17T16:21:53.351Z,101479.40
2018-08-17T16:24:22.304Z,101484.34
2018-08-17T16:26:51.229Z,101488.14
2018-08-17T16:29:20.220Z,101491.93
2018-08-17T16:31:49.144Z,101490.66
2018-08-17T16:34:18.046Z,101490.18
2018-08-17T16:36:46.923Z,101493.77
2018-08-17T16:39:16.985Z,101496.46
2018-08-17T16:41:45.962Z,101497.84
2018-08-17T16:44:15.203Z,101496.77
2018-08-17T16:46:44.397Z,101489.42
2018-08-17T16:49:13.294Z,101488.05
2018-08-17T16:54:10.019Z,101483.70
2018-08-17T16:56:38.922Z,101483.16
2018-08-17T16:59:07.809Z,101491.11
2018-08-17T17:01:36.677Z,101492.47
2018-08-17T17:04:05.599Z,101492.15
2018-08-17T17:06:34.554Z,101493.44
2018-08-17T17:09:06.383Z,101491.30
2018-08-17T17:11:35.381Z,101498.98
2018-08-17T17:14:04.401Z,101500.67
2018-08-17T17:16:38.769Z,101502.86
2018-08-17T17:19:13.733Z,101504.52
2018-08-17T17:21:44.019Z,101502.64
2018-08-17T17:24:12.939Z,101498.83
2018-08-17T17:26:42.032Z,101509.00
2018-08-17T17:29:11.027Z,101505.45
2018-08-17T17:31:40.199Z,101506.81
2018-08-17T17:34:09.501Z,101498.62
2018-08-17T17:36:38.800Z,101504.67
2018-08-17T17:39:09.890Z,101512.08
2018-08-17T17:41:38.791Z,101506.88
2018-08-17T17:44:08.025Z,101508.53
2018-08-17T17:46:37.085Z,101511.25
2018-08-17T17:49:06.005Z,101508.80
2018-08-17T17:51:34.915Z,101511.55
2018-08-17T17:54:03.855Z,101515.39
2018-08-17T17:56:32.792Z,101510.21
2018-08-17T17:59:05.841Z,101508.32
2018-08-17T18:01:34.749Z,101511.86
2018-08-17T18:04:03.701Z,101512.97
2018-08-17T18:06:32.665Z,101514.09
2018-08-17T18:09:02.193Z,101515.45
2018-08-17T18:11:31.062Z,101509.98
2018-08-17T18:13:59.984Z,101513.86
2018-08-17T18:16:28.949Z,101514.11
2018-08-17T18:18:57.853Z,101510.86
2018-08-17T18:21:31.124Z,101516.05
2018-08-17T18:24:05.319Z,101519.59
2018-08-17T18:26:34.332Z,101525.08
2018-08-17T18:29:03.256Z,101528.39
2018-08-17T18:31:32.188Z,101531.91
2018-08-17T18:34:01.122Z,101531.94
2018-08-17T18:36:30.011Z,101537.96
2018-08-17T18:38:58.921Z,101533.28
2018-08-17T18:41:27.848Z,101540.97
2018-08-17T18:43:56.917Z,101541.78
2018-08-17T18:46:25.936Z,101545.89
2018-08-17T18:48:54.852Z,101550.28
2018-08-17T18:51:23.713Z,101556.30
2018-08-17T18:53:52.781Z,101558.75
2018-08-17T18:56:21.677Z,101563.36
2018-08-17T18:58:50.667Z,101559.80
2018-08-17T19:01:19.704Z,101563.04
2018-08-17T19:03:48.585Z,101566.61
2018-08-17T19:06:17.486Z,101570.92
2018-08-17T19:08:47.021Z,101576.92
2018-08-17T19:11:15.964Z,101580.66
2018-08-17T19:13:44.849Z,101576.78
2018-08-17T19:16:13.773Z,101590.71
2018-08-17T19:18:42.620Z,101590.95
2018-08-17T19:21:12.762Z,101594.50
2018-08-17T19:23:41.988Z,101600.91
2018-08-17T19:26:11.832Z,101602.87
2018-08-17T19:28:40.749Z,101606.61
2018-08-17T19:31:09.672Z,101604.92
2018-08-17T19:33:38.640Z,101610.09
2018-08-17T19:36:07.543Z,101611.16
2018-08-17T19:38:37.253Z,101610.05
2018-08-17T19:41:06.155Z,101615.67
2018-08-17T19:43:35.094Z,101619.50
2018-08-17T19:46:04.016Z,101616.22
2018-08-17T19:48:32.926Z,101615.59
2018-08-17T19:51:01.928Z,101617.80
2018-08-17T19:53:30.874Z,101624.38
2018-08-17T19:55:59.774Z,101628.07
2018-08-17T19:58:28.709Z,101623.93
2018-08-17T20:00:57.619Z,101633.53
2018-08-17T20:03:26.581Z,101633.91
2018-08-17T20:05:55.482Z,101633.78
2018-08-17T20:08:24.365Z,101630.98
2018-08-17T20:10:53.256Z,101636.94
2018-08-17T20:13:24.361Z,101638.90
2018-08-17T20:15:53.282Z,101644.44
2018-08-17T20:18:22.165Z,101649.72
2018-08-17T20:20:51.096Z,101644.83
2018-08-17T20:23:21.037Z,101649.45
2018-08-17T20:25:50.049Z,101647.27
2018-08-17T20:28:18.852Z,101653.25
2018-08-17T20:30:47.788Z,101646.78
2018-08-17T20:33:26.870Z,101644.54
2018-08-17T20:35:56.182Z,101657.05
2018-08-17T20:38:25.220Z,101653.31
2018-08-17T20:40:58.117Z,101650.84
2018-08-17T20:43:28.000Z,101647.77
2018-08-17T20:45:57.294Z,101658.14
2018-08-17T20:48:26.231Z,101659.66
2018-08-17T20:50:55.125Z,101661.52
2018-08-17T20:53:24.090Z,101657.52
2018-08-17T20:55:52.987Z,101663.23
2018-08-17T20:58:21.881Z,101664.13
2018-08-17T21:00:50.764Z,101665.70
2018-08-17T21:03:19.648Z,101659.28
2018-08-17T21:05:48.536Z,101667.62
2018-08-17T21:08:17.405Z,101672.84
2018-08-17T21:10:46.349Z,101674.91
2018-08-17T21:13:15.225Z,101675.11
2018-08-17T21:15:45.163Z,101680.01
2018-08-17T21:18:14.090Z,101678.59
2018-08-17T21:20:42.970Z,101674.78
2018-08-17T21:23:11.878Z,101679.45
2018-08-17T21:25:40.770Z,101683.02
2018-08-17T21:28:09.667Z,101684.58
2018-08-17T21:30:38.551Z,101687.86
2018-08-17T21:33:07.548Z,101682.76
2018-08-17T21:35:36.461Z,101689.97
2018-08-17T21:38:05.384Z,101688.73
2018-08-17T21:40:34.292Z,101690.51
2018-08-17T21:43:03.187Z,101693.27
2018-08-17T21:45:32.145Z,101690.80
2018-08-17T21:48:01.070Z,101696.73
2018-08-17T21:50:29.998Z,101692.94
2018-08-17T21:52:58.869Z,101694.42
2018-08-17T21:55:27.765Z,101695.41
2018-08-17T21:57:56.690Z,101693.91
2018-08-17T22:00:31.738Z,101697.87
2018-08-17T22:03:00.634Z,101695.34
2018-08-17T22:05:30.887Z,101694.23
2018-08-17T22:08:00.432Z,101697.55
2018-08-17T22:10:30.876Z,101701.88
2018-08-17T22:12:59.781Z,101702.59
2018-08-17T22:15:29.965Z,101694.12
2018-08-17T22:17:58.858Z,101696.55
2018-08-17T22:20:27.793Z,101698.27
2018-08-17T22:22:58.225Z,101700.48
2018-08-17T22:25:27.123Z,101701.03
2018-08-17T22:27:56.040Z,101701.59
2018-08-17T22:30:26.067Z,101711.89
2018-08-17T22:32:55.024Z,101716.66
2018-08-17T22:35:24.000Z,101720.34
2018-08-17T22:37:52.864Z,101715.88
2018-08-17T22:40:21.741Z,101724.80
2018-08-17T22:42:51.087Z,101728.55
2018-08-17T22:45:20.009Z,101725.52
2018-08-17T22:47:48.927Z,101731.81
2018-08-17T22:50:17.868Z,101729.84
2018-08-17T22:52:46.763Z,101735.78
2018-08-17T22:55:15.757Z,101736.23
2018-08-17T22:57:44.644Z,101736.28
2018-08-17T23:00:24.424Z,101735.47
2018-08-17T23:02:55.402Z,101730.80
2018-08-17T23:05:25.844Z,101737.26
2018-08-17T23:07:54.868Z,101740.53
2018-08-17T23:10:24.950Z,101738.78
2018-08-17T23:12:54.473Z,101740.73
2018-08-17T23:15:23.446Z,101746.20
2018-08-17T23:17:53.478Z,101748.98
2018-08-17T23:20:28.015Z,101752.41
2018-08-17T23:22:58.076Z,101756.95
2018-08-17T23:25:27.111Z,101749.58
2018-08-17T23:27:56.311Z,101753.52
2018-08-17T23:30:25.257Z,101751.45
2018-08-17T23:32:54.192Z,101749.79
2018-08-17T23:35:23.091Z,101747.95
2018-08-17T23:37:52.009Z,101754.53
2018-08-17T23:40:21.017Z,101756.64
2018-08-17T23:42:49.905Z,101754.84
2018-08-17T23:45:19.166Z,101754.08
2018-08-17T23:47:48.062Z,101748.48
2018-08-17T23:50:17.345Z,101753.73
2018-08-17T23:52:46.333Z,101752.63
2018-08-17T23:55:16.707Z,101751.75
2018-08-17T23:57:45.624Z,101750.34
